sensor_id;sensor_type;location;lat;lon;timestamp;temperature;humidity
28767;DHT22;15921;52.034;20.650;2023-04-15T00:01:20;11.50;99.90
28767;DHT22;15921;52.034;20.650;2023-04-15T00:03:49;11.50;99.90
28767;DHT22;15921;52.034;20.650;2023-04-15T00:06:17;11.50;99.90
28767;DHT22;15921;52.034;20.650;2023-04-15T00:08:44;11.50;99.90
28767;DHT22;15921;52.034;20.650;2023-04-15T00:11:10;11.50;99.90
28767;DHT22;15921;52.034;20.650;2023-04-15T00:13:36;11.50;99.90
28767;DHT22;15921;52.034;20.650;2023-04-15T00:16:02;11.40;99.90
28767;DHT22;15921;52.034;20.650;2023-04-15T00:18:28;11.40;99.90
28767;DHT22;15921;52.034;20.650;2023-04-15T00:20:57;11.40;99.90
28767;DHT22;15921;52.034;20.650;2023-04-15T00:23:23;11.40;99.90
28767;DHT22;15921;52.034;20.650;2023-04-15T00:25:49;11.40;99.90
28767;DHT22;15921;52.034;20.650;2023-04-15T00:28:15;11.50;99.90
28767;DHT22;15921;52.034;20.650;2023-04-15T00:30:42;11.40;99.90
28767;DHT22;15921;52.034;20.650;2023-04-15T00:33:07;11.40;99.90
28767;DHT22;15921;52.034;20.650;2023-04-15T00:35:33;11.40;99.90
28767;DHT22;15921;52.034;20.650;2023-04-15T00:38:00;11.40;99.90
28767;DHT22;15921;52.034;20.650;2023-04-15T00:40:25;11.40;99.90
28767;DHT22;15921;52.034;20.650;2023-04-15T00:42:52;11.40;99.90
28767;DHT22;15921;52.034;20.650;2023-04-15T00:45:18;11.40;99.90
28767;DHT22;15921;52.034;20.650;2023-04-15T00:47:44;11.40;99.90
28767;DHT22;15921;52.034;20.650;2023-04-15T00:50:11;11.30;99.90
28767;DHT22;15921;52.034;20.650;2023-04-15T00:52:37;11.30;99.90
28767;DHT22;15921;52.034;20.650;2023-04-15T00:55:04;11.20;99.90
28767;DHT22;15921;52.034;20.650;2023-04-15T00:57:30;11.20;99.90
28767;DHT22;15921;52.034;20.650;2023-04-15T00:59:57;11.20;99.90
28767;DHT22;15921;52.034;20.650;2023-04-15T01:02:24;11.20;99.90
28767;DHT22;15921;52.034;20.650;2023-04-15T01:04:50;11.10;99.90
28767;DHT22;15921;52.034;20.650;2023-04-15T01:07:15;11.10;99.90
28767;DHT22;15921;52.034;20.650;2023-04-15T01:09:42;11.10;99.90
28767;DHT22;15921;52.034;20.650;2023-04-15T01:12:11;11.10;99.90
28767;DHT22;15921;52.034;20.650;2023-04-15T01:14:37;11.10;99.90
28767;DHT22;15921;52.034;20.650;2023-04-15T01:17:03;11.10;99.90
28767;DHT22;15921;52.034;20.650;2023-04-15T01:19:28;11.00;99.90
28767;DHT22;15921;52.034;20.650;2023-04-15T01:21:55;11.00;99.90
28767;DHT22;15921;52.034;20.650;2023-04-15T01:24:22;11.00;99.90
28767;DHT22;15921;52.034;20.650;2023-04-15T01:26:49;10.90;99.90
28767;DHT22;15921;52.034;20.650;2023-04-15T01:29:15;10.90;99.90
28767;DHT22;15921;52.034;20.650;2023-04-15T01:31:51;10.90;99.90
28767;DHT22;15921;52.034;20.650;2023-04-15T01:34:17;10.90;99.90
28767;DHT22;15921;52.034;20.650;2023-04-15T01:36:43;10.90;99.90
28767;DHT22;15921;52.034;20.650;2023-04-15T01:39:08;10.90;99.90
28767;DHT22;15921;52.034;20.650;2023-04-15T01:41:34;10.80;99.90
28767;DHT22;15921;52.034;20.650;2023-04-15T01:44:00;10.80;99.90
28767;DHT22;15921;52.034;20.650;2023-04-15T01:46:26;10.70;99.90
28767;DHT22;15921;52.034;20.650;2023-04-15T01:48:52;10.70;99.90
28767;DHT22;15921;52.034;20.650;2023-04-15T01:51:17;10.70;99.90
28767;DHT22;15921;52.034;20.650;2023-04-15T01:53:43;10.70;99.90
28767;DHT22;15921;52.034;20.650;2023-04-15T01:56:09;10.70;99.90
28767;DHT22;15921;52.034;20.650;2023-04-15T01:58:35;10.70;99.90
28767;DHT22;15921;52.034;20.650;2023-04-15T02:01:01;10.60;99.90
28767;DHT22;15921;52.034;20.650;2023-04-15T02:03:28;10.60;99.90
28767;DHT22;15921;52.034;20.650;2023-04-15T02:05:54;10.50;99.90
28767;DHT22;15921;52.034;20.650;2023-04-15T02:08:19;10.50;99.90
28767;DHT22;15921;52.034;20.650;2023-04-15T02:10:45;10.50;99.90
28767;DHT22;15921;52.034;20.650;2023-04-15T02:13:11;10.50;99.90
28767;DHT22;15921;52.034;20.650;2023-04-15T02:15:36;10.50;99.90
28767;DHT22;15921;52.034;20.650;2023-04-15T02:18:03;10.40;99.90
28767;DHT22;15921;52.034;20.650;2023-04-15T02:20:29;10.30;99.90
28767;DHT22;15921;52.034;20.650;2023-04-15T02:22:57;10.30;99.90
28767;DHT22;15921;52.034;20.650;2023-04-15T02:25:23;10.30;99.90
28767;DHT22;15921;52.034;20.650;2023-04-15T02:27:48;10.30;99.90
28767;DHT22;15921;52.034;20.650;2023-04-15T02:30:14;10.30;99.90
28767;DHT22;15921;52.034;20.650;2023-04-15T02:32:40;10.30;99.90
28767;DHT22;15921;52.034;20.650;2023-04-15T02:35:09;10.20;99.90
28767;DHT22;15921;52.034;20.650;2023-04-15T02:37:35;10.20;99.90
28767;DHT22;15921;52.034;20.650;2023-04-15T02:40:08;10.20;99.90
28767;DHT22;15921;52.034;20.650;2023-04-15T02:42:35;10.20;99.90
28767;DHT22;15921;52.034;20.650;2023-04-15T02:45:01;10.10;99.90
28767;DHT22;15921;52.034;20.650;2023-04-15T02:47:27;10.10;99.90
28767;DHT22;15921;52.034;20.650;2023-04-15T02:49:52;10.10;99.90
28767;DHT22;15921;52.034;20.650;2023-04-15T02:52:18;10.10;99.90
28767;DHT22;15921;52.034;20.650;2023-04-15T02:54:44;10.10;99.90
28767;DHT22;15921;52.034;20.650;2023-04-15T02:57:10;10.10;99.90
28767;DHT22;15921;52.034;20.650;2023-04-15T02:59:36;10.10;99.90
28767;DHT22;15921;52.034;20.650;2023-04-15T03:02:01;10.10;99.90
28767;DHT22;15921;52.034;20.650;2023-04-15T03:04:27;10.10;99.90
28767;DHT22;15921;52.034;20.650;2023-04-15T03:06:54;10.10;99.90
28767;DHT22;15921;52.034;20.650;2023-04-15T03:09:21;10.10;99.90
28767;DHT22;15921;52.034;20.650;2023-04-15T03:11:47;10.10;99.90
28767;DHT22;15921;52.034;20.650;2023-04-15T03:14:12;10.00;99.90
28767;DHT22;15921;52.034;20.650;2023-04-15T03:16:38;10.00;99.90
28767;DHT22;15921;52.034;20.650;2023-04-15T03:19:04;10.00;99.90
28767;DHT22;15921;52.034;20.650;2023-04-15T03:21:29;10.00;99.90
28767;DHT22;15921;52.034;20.650;2023-04-15T03:23:55;10.00;99.90
28767;DHT22;15921;52.034;20.650;2023-04-15T03:26:31;10.00;99.90
28767;DHT22;15921;52.034;20.650;2023-04-15T03:28:57;10.10;99.90
28767;DHT22;15921;52.034;20.650;2023-04-15T03:31:23;10.10;99.90
28767;DHT22;15921;52.034;20.650;2023-04-15T03:33:49;10.10;99.90
28767;DHT22;15921;52.034;20.650;2023-04-15T03:36:15;10.10;99.90
28767;DHT22;15921;52.034;20.650;2023-04-15T03:38:41;10.10;99.90
28767;DHT22;15921;52.034;20.650;2023-04-15T03:41:07;10.00;99.90
28767;DHT22;15921;52.034;20.650;2023-04-15T03:43:34;10.10;99.90
28767;DHT22;15921;52.034;20.650;2023-04-15T03:46:00;10.00;99.90
28767;DHT22;15921;52.034;20.650;2023-04-15T03:48:26;10.10;99.90
28767;DHT22;15921;52.034;20.650;2023-04-15T03:50:51;10.10;99.90
28767;DHT22;15921;52.034;20.650;2023-04-15T03:53:17;10.10;99.90
28767;DHT22;15921;52.034;20.650;2023-04-15T03:55:43;10.10;99.90
28767;DHT22;15921;52.034;20.650;2023-04-15T03:58:09;10.20;99.90
28767;DHT22;15921;52.034;20.650;2023-04-15T04:00:38;10.20;99.90
28767;DHT22;15921;52.034;20.650;2023-04-15T04:03:03;10.20;99.90
28767;DHT22;15921;52.034;20.650;2023-04-15T04:05:29;10.20;99.90
28767;DHT22;15921;52.034;20.650;2023-04-15T04:07:55;10.10;99.90
28767;DHT22;15921;52.034;20.650;2023-04-15T04:10:21;10.20;99.90
28767;DHT22;15921;52.034;20.650;2023-04-15T04:12:47;10.20;99.90
28767;DHT22;15921;52.034;20.650;2023-04-15T04:15:12;10.20;99.90
28767;DHT22;15921;52.034;20.650;2023-04-15T04:17:38;10.20;99.90
28767;DHT22;15921;52.034;20.650;2023-04-15T04:20:04;10.20;99.90
28767;DHT22;15921;52.034;20.650;2023-04-15T04:22:30;10.10;99.90
28767;DHT22;15921;52.034;20.650;2023-04-15T04:24:56;10.20;99.90
28767;DHT22;15921;52.034;20.650;2023-04-15T04:27:24;10.10;99.90
28767;DHT22;15921;52.034;20.650;2023-04-15T04:29:50;10.20;99.90
28767;DHT22;15921;52.034;20.650;2023-04-15T04:32:16;10.20;99.90
28767;DHT22;15921;52.034;20.650;2023-04-15T04:34:41;10.20;99.90
28767;DHT22;15921;52.034;20.650;2023-04-15T04:37:07;10.20;99.90
28767;DHT22;15921;52.034;20.650;2023-04-15T04:39:33;10.20;99.90
28767;DHT22;15921;52.034;20.650;2023-04-15T04:41:58;10.20;99.90
28767;DHT22;15921;52.034;20.650;2023-04-15T04:44:24;10.20;99.90
28767;DHT22;15921;52.034;20.650;2023-04-15T04:46:50;10.20;99.90
28767;DHT22;15921;52.034;20.650;2023-04-15T04:49:15;10.20;99.90
28767;DHT22;15921;52.034;20.650;2023-04-15T04:51:41;10.20;99.90
28767;DHT22;15921;52.034;20.650;2023-04-15T04:54:07;10.20;99.90
28767;DHT22;15921;52.034;20.650;2023-04-15T04:56:33;10.20;99.90
28767;DHT22;15921;52.034;20.650;2023-04-15T04:58:59;10.20;99.90
28767;DHT22;15921;52.034;20.650;2023-04-15T05:01:25;10.20;99.90
28767;DHT22;15921;52.034;20.650;2023-04-15T05:03:52;10.20;99.90
28767;DHT22;15921;52.034;20.650;2023-04-15T05:06:17;10.30;99.90
28767;DHT22;15921;52.034;20.650;2023-04-15T05:08:43;10.20;99.90
28767;DHT22;15921;52.034;20.650;2023-04-15T05:11:08;10.20;99.90
28767;DHT22;15921;52.034;20.650;2023-04-15T05:13:34;10.20;99.90
28767;DHT22;15921;52.034;20.650;2023-04-15T05:16:03;10.20;99.90
28767;DHT22;15921;52.034;20.650;2023-04-15T05:18:29;10.30;99.90
28767;DHT22;15921;52.034;20.650;2023-04-15T05:20:55;10.30;99.90
28767;DHT22;15921;52.034;20.650;2023-04-15T05:23:21;10.30;99.90
28767;DHT22;15921;52.034;20.650;2023-04-15T05:25:46;10.30;99.90
28767;DHT22;15921;52.034;20.650;2023-04-15T05:28:12;10.40;99.90
28767;DHT22;15921;52.034;20.650;2023-04-15T05:30:38;10.40;99.90
28767;DHT22;15921;52.034;20.650;2023-04-15T05:33:04;10.40;99.90
28767;DHT22;15921;52.034;20.650;2023-04-15T05:35:30;10.40;99.90
28767;DHT22;15921;52.034;20.650;2023-04-15T05:37:56;10.40;99.90
28767;DHT22;15921;52.034;20.650;2023-04-15T05:40:21;10.40;99.90
28767;DHT22;15921;52.034;20.650;2023-04-15T05:42:47;10.50;99.90
28767;DHT22;15921;52.034;20.650;2023-04-15T05:45:13;10.40;99.90
28767;DHT22;15921;52.034;20.650;2023-04-15T05:47:39;10.50;99.90
28767;DHT22;15921;52.034;20.650;2023-04-15T05:50:05;10.50;99.90
28767;DHT22;15921;52.034;20.650;2023-04-15T05:52:31;10.50;99.90
28767;DHT22;15921;52.034;20.650;2023-04-15T05:54:57;10.50;99.90
28767;DHT22;15921;52.034;20.650;2023-04-15T05:57:22;10.50;99.90
28767;DHT22;15921;52.034;20.650;2023-04-15T05:59:48;10.50;99.90
28767;DHT22;15921;52.034;20.650;2023-04-15T06:02:16;10.50;99.90
28767;DHT22;15921;52.034;20.650;2023-04-15T06:04:42;10.50;99.90
28767;DHT22;15921;52.034;20.650;2023-04-15T06:07:08;10.50;99.90
28767;DHT22;15921;52.034;20.650;2023-04-15T06:09:34;10.50;99.90
28767;DHT22;15921;52.034;20.650;2023-04-15T06:12:00;10.50;99.90
28767;DHT22;15921;52.034;20.650;2023-04-15T06:14:26;10.50;99.90
28767;DHT22;15921;52.034;20.650;2023-04-15T06:16:52;10.50;99.90
28767;DHT22;15921;52.034;20.650;2023-04-15T06:19:18;10.50;99.90
28767;DHT22;15921;52.034;20.650;2023-04-15T06:21:44;10.50;99.90
28767;DHT22;15921;52.034;20.650;2023-04-15T06:24:11;10.50;99.90
28767;DHT22;15921;52.034;20.650;2023-04-15T06:26:36;10.60;99.90
28767;DHT22;15921;52.034;20.650;2023-04-15T06:29:02;10.60;99.90
28767;DHT22;15921;52.034;20.650;2023-04-15T06:31:28;10.60;99.90
28767;DHT22;15921;52.034;20.650;2023-04-15T06:33:54;10.60;99.90
28767;DHT22;15921;52.034;20.650;2023-04-15T06:36:20;10.60;99.90
28767;DHT22;15921;52.034;20.650;2023-04-15T06:38:46;10.60;99.90
28767;DHT22;15921;52.034;20.650;2023-04-15T06:41:11;10.70;99.90
28767;DHT22;15921;52.034;20.650;2023-04-15T06:43:38;10.60;99.90
28767;DHT22;15921;52.034;20.650;2023-04-15T06:46:03;10.60;99.90
28767;DHT22;15921;52.034;20.650;2023-04-15T06:48:29;10.60;99.90
28767;DHT22;15921;52.034;20.650;2023-04-15T06:50:55;10.70;99.90
28767;DHT22;15921;52.034;20.650;2023-04-15T06:53:20;10.70;99.90
28767;DHT22;15921;52.034;20.650;2023-04-15T06:55:47;10.70;99.90
28767;DHT22;15921;52.034;20.650;2023-04-15T06:58:12;10.70;99.90
28767;DHT22;15921;52.034;20.650;2023-04-15T07:00:38;10.70;99.90
28767;DHT22;15921;52.034;20.650;2023-04-15T07:03:04;10.70;99.90
28767;DHT22;15921;52.034;20.650;2023-04-15T07:05:30;10.70;99.90
28767;DHT22;15921;52.034;20.650;2023-04-15T07:07:57;10.70;99.90
28767;DHT22;15921;52.034;20.650;2023-04-15T07:10:22;10.70;99.90
28767;DHT22;15921;52.034;20.650;2023-04-15T07:12:48;10.70;99.90
28767;DHT22;15921;52.034;20.650;2023-04-15T07:15:15;10.70;99.90
28767;DHT22;15921;52.034;20.650;2023-04-15T07:17:41;10.70;99.90
28767;DHT22;15921;52.034;20.650;2023-04-15T07:20:10;10.70;99.90
28767;DHT22;15921;52.034;20.650;2023-04-15T07:22:37;10.80;99.90
28767;DHT22;15921;52.034;20.650;2023-04-15T07:25:03;10.70;99.90
28767;DHT22;15921;52.034;20.650;2023-04-15T07:27:29;10.80;99.90
28767;DHT22;15921;52.034;20.650;2023-04-15T07:29:55;10.80;99.90
28767;DHT22;15921;52.034;20.650;2023-04-15T07:32:21;10.80;99.90
28767;DHT22;15921;52.034;20.650;2023-04-15T07:34:46;10.90;99.90
28767;DHT22;15921;52.034;20.650;2023-04-15T07:37:12;10.90;99.90
28767;DHT22;15921;52.034;20.650;2023-04-15T07:39:38;11.00;99.90
28767;DHT22;15921;52.034;20.650;2023-04-15T07:42:03;11.10;99.90
28767;DHT22;15921;52.034;20.650;2023-04-15T07:44:29;11.10;99.90
28767;DHT22;15921;52.034;20.650;2023-04-15T07:46:56;11.20;99.90
28767;DHT22;15921;52.034;20.650;2023-04-15T07:49:22;11.20;99.90
28767;DHT22;15921;52.034;20.650;2023-04-15T07:51:48;11.30;99.90
28767;DHT22;15921;52.034;20.650;2023-04-15T07:54:14;11.30;99.90
28767;DHT22;15921;52.034;20.650;2023-04-15T07:56:40;11.30;99.90
28767;DHT22;15921;52.034;20.650;2023-04-15T07:59:06;11.30;99.90
28767;DHT22;15921;52.034;20.650;2023-04-15T08:01:31;11.30;99.90
28767;DHT22;15921;52.034;20.650;2023-04-15T08:03:58;11.30;99.90
28767;DHT22;15921;52.034;20.650;2023-04-15T08:06:24;11.40;99.90
28767;DHT22;15921;52.034;20.650;2023-04-15T08:08:49;11.40;99.90
28767;DHT22;15921;52.034;20.650;2023-04-15T08:11:15;11.50;99.90
28767;DHT22;15921;52.034;20.650;2023-04-15T08:13:41;11.50;99.90
28767;DHT22;15921;52.034;20.650;2023-04-15T08:16:15;11.50;99.90
28767;DHT22;15921;52.034;20.650;2023-04-15T08:18:41;11.60;99.90
28767;DHT22;15921;52.034;20.650;2023-04-15T08:21:06;11.60;99.90
28767;DHT22;15921;52.034;20.650;2023-04-15T08:23:32;11.70;99.90
28767;DHT22;15921;52.034;20.650;2023-04-15T08:25:59;11.70;99.90
28767;DHT22;15921;52.034;20.650;2023-04-15T08:28:25;11.90;99.90
28767;DHT22;15921;52.034;20.650;2023-04-15T08:30:51;11.90;99.90
28767;DHT22;15921;52.034;20.650;2023-04-15T08:33:17;12.00;99.90
28767;DHT22;15921;52.034;20.650;2023-04-15T08:35:43;12.00;99.90
28767;DHT22;15921;52.034;20.650;2023-04-15T08:38:09;12.20;99.90
28767;DHT22;15921;52.034;20.650;2023-04-15T08:40:44;12.30;99.90
28767;DHT22;15921;52.034;20.650;2023-04-15T08:43:14;12.30;99.90
28767;DHT22;15921;52.034;20.650;2023-04-15T08:45:43;12.30;99.90
28767;DHT22;15921;52.034;20.650;2023-04-15T08:48:14;12.20;99.90
28767;DHT22;15921;52.034;20.650;2023-04-15T08:50:41;12.10;99.90
28767;DHT22;15921;52.034;20.650;2023-04-15T08:53:08;12.10;99.90
28767;DHT22;15921;52.034;20.650;2023-04-15T08:55:35;12.10;99.90
28767;DHT22;15921;52.034;20.650;2023-04-15T08:58:04;12.30;99.90
28767;DHT22;15921;52.034;20.650;2023-04-15T09:00:31;12.40;99.90
28767;DHT22;15921;52.034;20.650;2023-04-15T09:02:58;12.50;99.90
28767;DHT22;15921;52.034;20.650;2023-04-15T09:05:24;12.50;99.90
28767;DHT22;15921;52.034;20.650;2023-04-15T09:07:50;12.50;99.90
28767;DHT22;15921;52.034;20.650;2023-04-15T09:10:16;12.50;99.90
28767;DHT22;15921;52.034;20.650;2023-04-15T09:12:42;12.50;99.90
28767;DHT22;15921;52.034;20.650;2023-04-15T09:15:10;12.50;99.90
28767;DHT22;15921;52.034;20.650;2023-04-15T09:17:41;12.60;99.90
28767;DHT22;15921;52.034;20.650;2023-04-15T09:22:35;12.70;99.90
28767;DHT22;15921;52.034;20.650;2023-04-15T09:25:02;12.70;99.90
28767;DHT22;15921;52.034;20.650;2023-04-15T09:27:28;12.60;99.90
28767;DHT22;15921;52.034;20.650;2023-04-15T09:29:54;12.60;99.90
28767;DHT22;15921;52.034;20.650;2023-04-15T09:32:20;12.60;99.90
28767;DHT22;15921;52.034;20.650;2023-04-15T09:34:47;12.70;99.90
28767;DHT22;15921;52.034;20.650;2023-04-15T09:37:13;12.80;99.90
28767;DHT22;15921;52.034;20.650;2023-04-15T09:39:50;13.00;99.90
28767;DHT22;15921;52.034;20.650;2023-04-15T09:42:17;13.20;99.90
28767;DHT22;15921;52.034;20.650;2023-04-15T09:44:49;13.40;99.90
28767;DHT22;15921;52.034;20.650;2023-04-15T09:47:31;13.60;99.90
28767;DHT22;15921;52.034;20.650;2023-04-15T09:50:00;13.60;99.90
28767;DHT22;15921;52.034;20.650;2023-04-15T09:52:27;13.70;99.90
28767;DHT22;15921;52.034;20.650;2023-04-15T09:54:54;13.70;99.90
28767;DHT22;15921;52.034;20.650;2023-04-15T09:57:23;13.80;99.90
28767;DHT22;15921;52.034;20.650;2023-04-15T09:59:49;13.90;99.90
28767;DHT22;15921;52.034;20.650;2023-04-15T10:02:17;14.00;99.90
28767;DHT22;15921;52.034;20.650;2023-04-15T10:04:43;14.10;99.90
28767;DHT22;15921;52.034;20.650;2023-04-15T10:07:11;14.10;99.90
28767;DHT22;15921;52.034;20.650;2023-04-15T10:09:40;14.10;99.90
28767;DHT22;15921;52.034;20.650;2023-04-15T10:12:05;14.10;99.90
28767;DHT22;15921;52.034;20.650;2023-04-15T10:14:34;13.90;99.90
28767;DHT22;15921;52.034;20.650;2023-04-15T10:17:04;13.90;99.90
28767;DHT22;15921;52.034;20.650;2023-04-15T10:19:36;13.80;99.90
28767;DHT22;15921;52.034;20.650;2023-04-15T10:22:03;13.80;99.90
28767;DHT22;15921;52.034;20.650;2023-04-15T10:24:32;13.80;99.90
28767;DHT22;15921;52.034;20.650;2023-04-15T10:27:02;13.90;99.90
28767;DHT22;15921;52.034;20.650;2023-04-15T10:29:28;13.90;99.90
28767;DHT22;15921;52.034;20.650;2023-04-15T10:32:03;14.00;99.90
28767;DHT22;15921;52.034;20.650;2023-04-15T10:34:30;14.00;99.90
28767;DHT22;15921;52.034;20.650;2023-04-15T10:37:01;14.20;99.90
28767;DHT22;15921;52.034;20.650;2023-04-15T10:42:06;14.50;99.90
28767;DHT22;15921;52.034;20.650;2023-04-15T10:44:32;14.70;99.90
28767;DHT22;15921;52.034;20.650;2023-04-15T10:46:58;15.00;99.90
28767;DHT22;15921;52.034;20.650;2023-04-15T10:49:24;15.30;99.90
28767;DHT22;15921;52.034;20.650;2023-04-15T10:52:00;15.70;99.90
28767;DHT22;15921;52.034;20.650;2023-04-15T11:00:00;16.30;99.90
28767;DHT22;15921;52.034;20.650;2023-04-15T11:05:07;16.50;99.90
28767;DHT22;15921;52.034;20.650;2023-04-15T11:12:44;16.20;99.90
28767;DHT22;15921;52.034;20.650;2023-04-15T11:15:37;16.10;99.90
28767;DHT22;15921;52.034;20.650;2023-04-15T11:18:20;15.90;99.90
28767;DHT22;15921;52.034;20.650;2023-04-15T11:20:51;15.80;99.90
28767;DHT22;15921;52.034;20.650;2023-04-15T11:23:29;15.60;99.90
28767;DHT22;15921;52.034;20.650;2023-04-15T11:25:56;15.20;99.90
28767;DHT22;15921;52.034;20.650;2023-04-15T11:28:25;14.90;99.90
28767;DHT22;15921;52.034;20.650;2023-04-15T11:30:52;14.50;99.90
28767;DHT22;15921;52.034;20.650;2023-04-15T11:33:18;14.30;99.90
28767;DHT22;15921;52.034;20.650;2023-04-15T11:35:44;14.20;99.90
28767;DHT22;15921;52.034;20.650;2023-04-15T11:38:11;14.10;99.90
28767;DHT22;15921;52.034;20.650;2023-04-15T11:40:38;14.10;99.90
28767;DHT22;15921;52.034;20.650;2023-04-15T11:43:13;14.10;99.90
28767;DHT22;15921;52.034;20.650;2023-04-15T11:45:56;14.40;99.90
28767;DHT22;15921;52.034;20.650;2023-04-15T11:48:26;14.60;99.90
28767;DHT22;15921;52.034;20.650;2023-04-15T11:50:54;14.90;99.90
28767;DHT22;15921;52.034;20.650;2023-04-15T11:53:21;15.00;99.90
28767;DHT22;15921;52.034;20.650;2023-04-15T11:55:52;15.20;99.90
28767;DHT22;15921;52.034;20.650;2023-04-15T11:58:19;15.20;99.90
28767;DHT22;15921;52.034;20.650;2023-04-15T12:00:53;15.20;99.90
28767;DHT22;15921;52.034;20.650;2023-04-15T12:09:00;15.50;99.90
28767;DHT22;15921;52.034;20.650;2023-04-15T12:16:47;15.70;99.90
28767;DHT22;15921;52.034;20.650;2023-04-15T12:19:39;15.90;99.90
28767;DHT22;15921;52.034;20.650;2023-04-15T12:22:14;16.20;99.90
28767;DHT22;15921;52.034;20.650;2023-04-15T12:24:41;16.50;99.90
28767;DHT22;15921;52.034;20.650;2023-04-15T12:27:14;16.80;99.90
28767;DHT22;15921;52.034;20.650;2023-04-15T12:29:41;17.30;99.90
28767;DHT22;15921;52.034;20.650;2023-04-15T12:34:40;18.30;99.40
28767;DHT22;15921;52.034;20.650;2023-04-15T12:37:08;19.20;95.80
28767;DHT22;15921;52.034;20.650;2023-04-15T12:39:36;20.80;92.20
28767;DHT22;15921;52.034;20.650;2023-04-15T12:42:03;22.00;85.90
28767;DHT22;15921;52.034;20.650;2023-04-15T12:44:29;22.40;81.00
28767;DHT22;15921;52.034;20.650;2023-04-15T12:46:56;22.90;78.60
28767;DHT22;15921;52.034;20.650;2023-04-15T12:49:22;23.30;75.80
28767;DHT22;15921;52.034;20.650;2023-04-15T12:51:49;23.00;74.50
28767;DHT22;15921;52.034;20.650;2023-04-15T12:54:16;22.70;74.20
28767;DHT22;15921;52.034;20.650;2023-04-15T12:56:43;22.50;74.00
28767;DHT22;15921;52.034;20.650;2023-04-15T12:59:09;23.00;72.70
28767;DHT22;15921;52.034;20.650;2023-04-15T13:01:34;23.30;71.20
28767;DHT22;15921;52.034;20.650;2023-04-15T13:04:00;23.00;70.10
28767;DHT22;15921;52.034;20.650;2023-04-15T13:06:26;22.60;70.40
28767;DHT22;15921;52.034;20.650;2023-04-15T13:08:53;22.30;70.40
28767;DHT22;15921;52.034;20.650;2023-04-15T13:11:21;21.80;70.80
28767;DHT22;15921;52.034;20.650;2023-04-15T13:13:47;21.60;71.80
28767;DHT22;15921;52.034;20.650;2023-04-15T13:16:12;21.20;72.60
28767;DHT22;15921;52.034;20.650;2023-04-15T13:18:38;20.60;72.90
28767;DHT22;15921;52.034;20.650;2023-04-15T13:21:04;19.90;74.60
28767;DHT22;15921;52.034;20.650;2023-04-15T13:23:32;19.20;75.60
28767;DHT22;15921;52.034;20.650;2023-04-15T13:25:58;18.80;77.00
28767;DHT22;15921;52.034;20.650;2023-04-15T13:28:23;18.60;77.30
28767;DHT22;15921;52.034;20.650;2023-04-15T13:30:49;18.40;77.20
28767;DHT22;15921;52.034;20.650;2023-04-15T13:33:16;18.10;77.90
28767;DHT22;15921;52.034;20.650;2023-04-15T13:35:42;17.80;78.60
28767;DHT22;15921;52.034;20.650;2023-04-15T13:38:08;17.50;79.30
28767;DHT22;15921;52.034;20.650;2023-04-15T13:40:33;17.60;80.20
28767;DHT22;15921;52.034;20.650;2023-04-15T13:42:59;17.50;79.30
28767;DHT22;15921;52.034;20.650;2023-04-15T13:45:25;17.60;79.70
28767;DHT22;15921;52.034;20.650;2023-04-15T13:47:52;17.80;80.10
28767;DHT22;15921;52.034;20.650;2023-04-15T13:50:18;17.90;80.20
28767;DHT22;15921;52.034;20.650;2023-04-15T13:52:43;18.10;79.60
28767;DHT22;15921;52.034;20.650;2023-04-15T13:55:09;18.10;78.30
28767;DHT22;15921;52.034;20.650;2023-04-15T13:57:35;18.30;77.20
28767;DHT22;15921;52.034;20.650;2023-04-15T14:00:01;18.70;77.20
28767;DHT22;15921;52.034;20.650;2023-04-15T14:02:29;19.50;76.00
28767;DHT22;15921;52.034;20.650;2023-04-15T14:04:55;21.30;72.30
28767;DHT22;15921;52.034;20.650;2023-04-15T14:07:20;22.50;67.80
28767;DHT22;15921;52.034;20.650;2023-04-15T14:09:46;23.00;65.20
28767;DHT22;15921;52.034;20.650;2023-04-15T14:12:12;23.50;62.40
28767;DHT22;15921;52.034;20.650;2023-04-15T14:14:39;24.20;60.90
28767;DHT22;15921;52.034;20.650;2023-04-15T14:17:05;25.40;58.60
28767;DHT22;15921;52.034;20.650;2023-04-15T14:19:31;26.80;56.60
28767;DHT22;15921;52.034;20.650;2023-04-15T14:21:57;27.80;54.20
28767;DHT22;15921;52.034;20.650;2023-04-15T14:24:23;28.90;52.60
28767;DHT22;15921;52.034;20.650;2023-04-15T14:26:49;31.00;50.00
28767;DHT22;15921;52.034;20.650;2023-04-15T14:29:15;32.30;47.90
28767;DHT22;15921;52.034;20.650;2023-04-15T14:31:41;31.20;47.30
28767;DHT22;15921;52.034;20.650;2023-04-15T14:34:09;29.30;48.50
28767;DHT22;15921;52.034;20.650;2023-04-15T14:36:35;27.70;50.90
28767;DHT22;15921;52.034;20.650;2023-04-15T14:39:01;26.30;52.90
28767;DHT22;15921;52.034;20.650;2023-04-15T14:41:28;26.10;53.50
28767;DHT22;15921;52.034;20.650;2023-04-15T14:43:54;27.60;52.00
28767;DHT22;15921;52.034;20.650;2023-04-15T14:46:21;27.00;51.20
28767;DHT22;15921;52.034;20.650;2023-04-15T14:48:46;25.80;52.00
28767;DHT22;15921;52.034;20.650;2023-04-15T14:51:12;24.60;53.70
28767;DHT22;15921;52.034;20.650;2023-04-15T14:53:38;23.70;55.60
28767;DHT22;15921;52.034;20.650;2023-04-15T14:56:04;22.80;57.60
28767;DHT22;15921;52.034;20.650;2023-04-15T14:58:30;22.00;59.10
28767;DHT22;15921;52.034;20.650;2023-04-15T15:00:57;21.50;60.80
28767;DHT22;15921;52.034;20.650;2023-04-15T15:03:23;22.40;60.90
28767;DHT22;15921;52.034;20.650;2023-04-15T15:05:48;23.90;58.70
28767;DHT22;15921;52.034;20.650;2023-04-15T15:08:14;25.70;54.80
28767;DHT22;15921;52.034;20.650;2023-04-15T15:10:40;25.50;53.90
28767;DHT22;15921;52.034;20.650;2023-04-15T15:13:08;24.00;55.60
28767;DHT22;15921;52.034;20.650;2023-04-15T15:15:36;22.70;57.90
28767;DHT22;15921;52.034;20.650;2023-04-15T15:18:02;21.50;60.70
28767;DHT22;15921;52.034;20.650;2023-04-15T15:20:28;20.60;63.40
28767;DHT22;15921;52.034;20.650;2023-04-15T15:22:54;19.80;65.80
28767;DHT22;15921;52.034;20.650;2023-04-15T15:25:20;19.00;68.00
28767;DHT22;15921;52.034;20.650;2023-04-15T15:27:46;18.70;69.70
28767;DHT22;15921;52.034;20.650;2023-04-15T15:30:12;18.40;70.90
28767;DHT22;15921;52.034;20.650;2023-04-15T15:32:41;18.30;71.80
28767;DHT22;15921;52.034;20.650;2023-04-15T15:35:07;18.80;71.70
28767;DHT22;15921;52.034;20.650;2023-04-15T15:37:34;19.10;71.00
28767;DHT22;15921;52.034;20.650;2023-04-15T15:40:00;19.10;71.80
28767;DHT22;15921;52.034;20.650;2023-04-15T15:42:26;19.20;71.60
28767;DHT22;15921;52.034;20.650;2023-04-15T15:44:55;19.80;70.90